createdAt,value
2018-04-16T00:00:06.869Z,19.13
2018-04-16T00:02:34.259Z,17.70
2018-04-16T00:05:01.598Z,16.83
2018-04-16T00:07:28.897Z,20.07
2018-04-16T00:09:56.171Z,18.77
2018-04-16T00:12:23.562Z,17.77
2018-04-16T00:14:50.857Z,17.93
2018-04-16T00:17:18.198Z,17.17
2018-04-16T00:19:45.477Z,17.67
2018-04-16T00:22:12.959Z,16.50
2018-04-16T00:24:40.261Z,18.93
2018-04-16T00:27:07.670Z,19.57
2018-04-16T00:29:35.010Z,16.90
2018-04-16T00:32:07.981Z,15.97
2018-04-16T00:34:40.965Z,16.67
2018-04-16T00:37:14.069Z,15.30
2018-04-16T00:39:47.094Z,14.30
2018-04-16T00:42:20.156Z,14.53
2018-04-16T00:44:53.081Z,14.70
2018-04-16T00:47:25.961Z,16.50
2018-04-16T00:49:59.039Z,15.83
2018-04-16T00:52:32.029Z,17.03
2018-04-16T00:55:05.125Z,15.30
2018-04-16T00:57:51.013Z,17.90
2018-04-16T01:00:23.852Z,15.33
2018-04-16T01:02:56.904Z,15.07
2018-04-16T01:05:29.942Z,14.70
2018-04-16T01:08:13.852Z,15.20
2018-04-16T01:10:47.007Z,16.70
2018-04-16T01:13:20.079Z,16.70
2018-04-16T01:15:53.054Z,15.47
2018-04-16T01:18:26.154Z,15.60
2018-04-16T01:20:59.183Z,13.80
2018-04-16T01:23:32.278Z,15.60
2018-04-16T01:26:05.281Z,14.87
2018-04-16T01:28:38.409Z,14.70
2018-04-16T01:31:11.403Z,15.07
2018-04-16T01:33:44.419Z,15.10
2018-04-16T01:36:17.442Z,14.70
2018-04-16T01:38:50.535Z,17.97
2018-04-16T01:41:23.609Z,12.33
2018-04-16T01:43:56.619Z,12.50
2018-04-16T01:46:29.671Z,11.17
2018-04-16T01:49:02.716Z,11.63
2018-04-16T01:51:36.776Z,13.00
2018-04-16T01:54:09.648Z,12.90
2018-04-16T01:56:42.757Z,10.80
2018-04-16T01:59:15.828Z,10.83
2018-04-16T02:01:48.730Z,10.50
2018-04-16T02:04:21.558Z,10.87
2018-04-16T02:06:54.590Z,9.77
2018-04-16T02:09:27.590Z,10.90
2018-04-16T02:12:00.573Z,10.67
2018-04-16T02:14:33.628Z,11.30
2018-04-16T02:17:06.744Z,10.03
2018-04-16T02:19:39.716Z,10.50
2018-04-16T02:22:12.765Z,10.10
2018-04-16T02:24:45.713Z,10.00
2018-04-16T02:27:29.760Z,8.50
2018-04-16T02:30:02.550Z,9.50
2018-04-16T02:32:35.618Z,11.00
2018-04-16T02:35:08.632Z,10.50
2018-04-16T02:37:41.631Z,10.20
2018-04-16T02:40:14.629Z,10.20
2018-04-16T02:42:48.321Z,9.03
2018-04-16T02:45:21.363Z,8.73
2018-04-16T02:48:03.563Z,10.33
2018-04-16T02:50:36.498Z,8.53
2018-04-16T02:53:09.528Z,10.23
2018-04-16T02:55:42.601Z,7.80
2018-04-16T02:58:15.526Z,7.43
2018-04-16T03:00:48.509Z,8.27
2018-04-16T03:03:21.614Z,7.27
2018-04-16T03:05:54.563Z,6.77
2018-04-16T03:08:27.574Z,7.43
2018-04-16T03:11:00.610Z,5.70
2018-04-16T03:13:33.606Z,7.50
2018-04-16T03:16:06.629Z,7.20
2018-04-16T03:18:39.559Z,6.20
2018-04-16T03:21:12.657Z,6.67
2018-04-16T03:23:45.645Z,6.07
2018-04-16T03:26:18.608Z,6.63
2018-04-16T03:28:51.589Z,5.53
2018-04-16T03:31:24.541Z,6.50
2018-04-16T03:33:57.401Z,5.70
2018-04-16T03:36:42.378Z,6.60
2018-04-16T03:39:15.369Z,6.57
2018-04-16T03:41:48.415Z,6.30
2018-04-16T03:44:21.441Z,7.17
2018-04-16T03:46:54.361Z,6.20
2018-04-16T03:49:39.415Z,6.63
2018-04-16T03:52:12.325Z,5.67
2018-04-16T03:54:39.673Z,6.10
2018-04-16T03:57:07.081Z,5.90
2018-04-16T03:59:34.386Z,5.20
2018-04-16T04:02:01.689Z,5.67
2018-04-16T04:04:28.970Z,6.07
2018-04-16T04:06:56.261Z,5.80
2018-04-16T04:09:23.553Z,4.63
2018-04-16T04:11:50.831Z,5.10
2018-04-16T04:14:18.113Z,6.53
2018-04-16T04:16:45.401Z,7.40
2018-04-16T04:19:12.700Z,6.10
2018-04-16T04:21:40.028Z,6.30
2018-04-16T04:24:13.244Z,6.80
2018-04-16T04:26:46.237Z,5.67
2018-04-16T04:29:19.287Z,5.50
2018-04-16T04:31:47.227Z,5.20
2018-04-16T04:34:14.521Z,6.33
2018-04-16T04:36:41.839Z,5.60
2018-04-16T04:39:09.158Z,5.00
2018-04-16T04:41:36.592Z,4.13
2018-04-16T04:44:03.864Z,5.70
2018-04-16T04:46:31.155Z,5.27
2018-04-16T04:48:58.441Z,6.40
2018-04-16T04:51:25.717Z,4.70
2018-04-16T04:53:53.024Z,4.07
2018-04-16T04:56:20.292Z,5.20
2018-04-16T04:58:47.597Z,5.63
2018-04-16T05:01:14.884Z,5.17
2018-04-16T05:03:42.189Z,5.60
2018-04-16T05:06:09.647Z,5.13
2018-04-16T05:08:37.001Z,4.50
2018-04-16T05:11:04.570Z,5.40
2018-04-16T05:13:31.851Z,5.47
2018-04-16T05:15:59.157Z,5.60
2018-04-16T05:18:26.443Z,5.47
2018-04-16T05:20:53.746Z,6.50
2018-04-16T05:23:21.017Z,5.60
2018-04-16T05:25:48.316Z,7.47
2018-04-16T05:28:15.615Z,7.20
2018-04-16T05:30:42.957Z,7.97
2018-04-16T05:33:10.251Z,7.20
2018-04-16T05:35:37.715Z,6.20
2018-04-16T05:38:06.188Z,8.10
2018-04-16T05:40:33.493Z,7.00
2018-04-16T05:43:00.827Z,6.87
2018-04-16T05:45:28.122Z,6.00
2018-04-16T05:47:56.187Z,9.13
2018-04-16T05:50:23.499Z,7.57
2018-04-16T05:52:50.794Z,8.17
2018-04-16T05:55:18.068Z,7.70
2018-04-16T05:57:45.372Z,7.80
2018-04-16T06:00:12.724Z,8.70
2018-04-16T06:02:40.078Z,9.20
2018-04-16T06:05:07.577Z,9.73
2018-04-16T06:07:34.953Z,9.90
2018-04-16T06:10:02.661Z,11.60
2018-04-16T06:12:30.275Z,10.93
2018-04-16T06:14:57.692Z,11.43
2018-04-16T06:17:24.990Z,12.40
2018-04-16T06:19:52.290Z,13.03
2018-04-16T06:22:19.694Z,12.20
2018-04-16T06:24:47.066Z,15.20
2018-04-16T06:27:14.345Z,14.00
2018-04-16T06:29:41.683Z,14.90
2018-04-16T06:32:09.118Z,15.30
2018-04-16T06:34:36.546Z,14.47
2018-04-16T06:37:03.917Z,15.20
2018-04-16T06:39:31.522Z,18.93
2018-04-16T06:41:58.928Z,15.50
2018-04-16T06:44:26.611Z,17.10
2018-04-16T06:46:54.060Z,18.27
2018-04-16T06:49:21.538Z,19.10
2018-04-16T06:51:48.966Z,20.00
2018-04-16T06:54:16.383Z,22.47
2018-04-16T06:56:44.327Z,20.67
2018-04-16T06:59:11.922Z,20.13
2018-04-16T07:01:39.675Z,19.90
2018-04-16T07:06:38.990Z,21.30
2018-04-16T07:09:06.656Z,23.60
2018-04-16T07:11:34.658Z,22.57
2018-04-16T07:14:02.034Z,24.80
2018-04-16T07:16:29.477Z,23.10
2018-04-16T07:18:56.802Z,25.13
2018-04-16T07:21:24.141Z,26.33
2018-04-16T07:23:51.477Z,26.50
2018-04-16T07:26:18.890Z,27.00
2018-04-16T07:28:46.205Z,27.40
2018-04-16T07:31:14.464Z,27.50
2018-04-16T07:33:41.858Z,24.83
2018-04-16T07:36:09.219Z,27.50
2018-04-16T07:38:36.655Z,24.43
2018-04-16T07:41:04.042Z,28.20
2018-04-16T07:43:31.434Z,26.00
2018-04-16T07:45:58.840Z,26.17
2018-04-16T07:48:27.401Z,27.67
2018-04-16T07:50:54.758Z,26.77
2018-04-16T07:53:22.110Z,26.40
2018-04-16T07:55:49.775Z,29.30
2018-04-16T07:58:17.553Z,24.97
2018-04-16T08:00:44.991Z,26.40
2018-04-16T08:03:12.312Z,28.03
2018-04-16T08:05:39.906Z,32.33
2018-04-16T08:08:07.291Z,26.70
2018-04-16T08:10:34.811Z,28.70
2018-04-16T08:13:04.242Z,28.30
2018-04-16T08:15:31.632Z,26.67
2018-04-16T08:18:00.514Z,29.33
2018-04-16T08:20:28.386Z,26.17
2018-04-16T08:22:55.831Z,27.07
2018-04-16T08:25:23.934Z,27.53
2018-04-16T08:27:53.564Z,24.73
2018-04-16T08:30:20.934Z,24.37
2018-04-16T08:32:48.535Z,25.63
2018-04-16T08:37:48.503Z,24.97
2018-04-16T08:42:49.701Z,26.13
2018-04-16T08:47:48.802Z,25.80
2018-04-16T08:52:48.126Z,23.40
2018-04-16T08:57:51.544Z,24.80
2018-04-16T09:00:18.937Z,25.33
2018-04-16T09:02:47.239Z,25.63
2018-04-16T09:05:14.638Z,23.50
2018-04-16T09:07:42.011Z,25.93
2018-04-16T09:12:48.387Z,23.03
2018-04-16T09:15:15.801Z,21.37
2018-04-16T09:17:43.185Z,25.20
2018-04-16T09:22:46.020Z,26.53
2018-04-16T09:25:13.504Z,22.50
2018-04-16T09:27:40.958Z,24.07
2018-04-16T09:30:08.328Z,25.40
2018-04-16T09:32:37.143Z,25.97
2018-04-16T09:35:08.438Z,25.23
2018-04-16T09:40:09.046Z,27.90
2018-04-16T09:45:09.315Z,24.97
2018-04-16T09:47:40.874Z,24.10
2018-04-16T09:50:08.576Z,27.20
2018-04-16T09:52:36.004Z,25.60
2018-04-16T09:55:03.335Z,25.07
2018-04-16T09:57:30.697Z,22.17
2018-04-16T09:59:58.076Z,28.27
2018-04-16T10:02:25.370Z,23.40
2018-04-16T10:04:52.665Z,22.80
2018-04-16T10:07:19.981Z,22.30
2018-04-16T10:09:48.232Z,22.63
2018-04-16T10:12:15.579Z,24.90
2018-04-16T10:14:43.758Z,22.50
2018-04-16T10:17:11.086Z,20.70
2018-04-16T10:19:38.359Z,20.90
2018-04-16T10:22:05.723Z,21.50
2018-04-16T10:24:33.030Z,19.80
2018-04-16T10:27:00.336Z,20.90
2018-04-16T10:29:27.747Z,19.50
2018-04-16T10:31:55.045Z,18.73
2018-04-16T10:34:22.344Z,18.83
2018-04-16T10:36:49.632Z,19.43
2018-04-16T10:39:16.978Z,17.43
2018-04-16T10:41:44.611Z,17.33
2018-04-16T10:44:12.136Z,19.57
2018-04-16T10:46:39.725Z,17.73
2018-04-16T10:49:07.257Z,18.27
2018-04-16T10:51:34.898Z,17.27
2018-04-16T10:54:02.205Z,18.80
2018-04-16T10:56:29.571Z,24.23
2018-04-16T10:58:57.000Z,17.00
2018-04-16T11:01:24.334Z,16.30
2018-04-16T11:03:51.633Z,15.77
2018-04-16T11:06:18.935Z,15.03
2018-04-16T11:08:46.217Z,16.90
2018-04-16T11:11:13.617Z,16.27
2018-04-16T11:13:40.992Z,16.57
2018-04-16T11:16:08.302Z,14.10
2018-04-16T11:18:35.774Z,15.83
2018-04-16T11:21:03.128Z,16.73
2018-04-16T11:23:30.462Z,14.77
2018-04-16T11:25:58.029Z,15.30
2018-04-16T11:28:25.344Z,16.43
2018-04-16T11:30:52.717Z,15.00
2018-04-16T11:33:20.018Z,16.97
2018-04-16T11:35:47.317Z,17.73
2018-04-16T11:38:14.678Z,17.03
2018-04-16T11:40:42.047Z,16.53
2018-04-16T11:43:09.401Z,19.10
2018-04-16T11:45:36.802Z,17.63
2018-04-16T11:48:04.805Z,16.37
2018-04-16T11:50:32.259Z,17.00
2018-04-16T11:52:59.595Z,17.53
2018-04-16T11:55:26.912Z,17.80
2018-04-16T11:57:54.534Z,18.20
2018-04-16T12:00:21.829Z,17.80
2018-04-16T12:02:49.144Z,18.70
2018-04-16T12:05:17.158Z,18.40
2018-04-16T12:07:44.427Z,17.97
2018-04-16T12:10:11.735Z,15.80
2018-04-16T12:12:39.058Z,20.37
2018-04-16T12:15:06.484Z,19.20
2018-04-16T12:17:33.835Z,16.60
2018-04-16T12:20:04.526Z,18.17
2018-04-16T12:22:31.840Z,16.10
2018-04-16T12:24:59.169Z,16.90
2018-04-16T12:27:26.488Z,15.03
2018-04-16T12:29:53.926Z,14.60
2018-04-16T12:32:21.205Z,12.73
2018-04-16T12:34:48.862Z,14.20
2018-04-16T12:37:16.167Z,13.37
2018-04-16T12:39:47.508Z,13.63
2018-04-16T12:42:15.203Z,13.70
2018-04-16T12:44:42.497Z,12.33
2018-04-16T12:47:09.963Z,12.60
2018-04-16T12:49:37.377Z,12.13
2018-04-16T12:52:04.995Z,11.17
2018-04-16T12:54:32.369Z,13.13
2018-04-16T12:57:00.334Z,15.43
2018-04-16T12:59:28.023Z,15.60
2018-04-16T13:01:55.361Z,14.57
2018-04-16T13:04:22.714Z,15.80
2018-04-16T13:06:50.020Z,19.87
2018-04-16T13:09:17.343Z,18.00
2018-04-16T13:11:44.947Z,17.60
2018-04-16T13:14:12.231Z,19.10
2018-04-16T13:16:39.558Z,19.67
2018-04-16T13:19:06.869Z,17.80
2018-04-16T13:21:34.162Z,17.90
2018-04-16T13:24:01.596Z,20.40
2018-04-16T13:26:28.882Z,21.63
2018-04-16T13:28:56.192Z,19.10
2018-04-16T13:31:23.527Z,21.77
2018-04-16T13:33:50.821Z,20.27
2018-04-16T13:36:18.197Z,20.00
2018-04-16T13:38:45.490Z,22.53
2018-04-16T13:41:12.855Z,23.40
2018-04-16T13:43:40.185Z,24.90
2018-04-16T13:46:07.556Z,22.60
2018-04-16T13:48:34.947Z,21.17
2018-04-16T13:51:02.234Z,22.77
2018-04-16T13:53:29.518Z,23.50
2018-04-16T13:55:56.842Z,22.57
2018-04-16T13:58:24.114Z,22.87
2018-04-16T14:00:51.429Z,22.63
2018-04-16T14:03:18.727Z,22.87
2018-04-16T14:05:46.017Z,21.57
2018-04-16T14:08:13.370Z,20.20
2018-04-16T14:10:40.842Z,19.80
2018-04-16T14:13:08.172Z,18.63
2018-04-16T14:15:35.534Z,19.30
2018-04-16T14:18:02.822Z,17.43
2018-04-16T14:20:30.091Z,19.47
2018-04-16T14:22:57.487Z,18.23
2018-04-16T14:25:24.770Z,18.10
2018-04-16T14:27:52.073Z,18.70
2018-04-16T14:30:19.374Z,18.00
2018-04-16T14:32:46.664Z,19.03
2018-04-16T14:35:14.311Z,17.83
2018-04-16T14:37:41.646Z,16.07
2018-04-16T14:40:09.015Z,14.43
2018-04-16T14:42:36.771Z,13.17
2018-04-16T14:45:04.228Z,14.37
2018-04-16T14:47:31.535Z,13.50
2018-04-16T14:49:59.787Z,14.57
2018-04-16T14:52:27.073Z,14.03
2018-04-16T14:54:54.397Z,14.43
2018-04-16T14:57:21.712Z,13.50
2018-04-16T14:59:52.691Z,11.93
2018-04-16T15:04:51.662Z,14.70
2018-04-16T15:07:18.992Z,9.90
2018-04-16T15:12:18.061Z,10.57
2018-04-16T15:14:46.175Z,10.80
2018-04-16T15:17:13.673Z,11.20
2018-04-16T15:22:13.009Z,9.90
2018-04-16T15:24:44.476Z,8.87
2018-04-16T15:27:12.006Z,8.80
2018-04-16T15:29:39.507Z,7.30
2018-04-16T15:32:07.071Z,7.77
2018-04-16T15:34:34.991Z,12.37
2018-04-16T15:37:02.409Z,8.67
2018-04-16T15:39:30.675Z,8.30
2018-04-16T15:41:58.912Z,9.30
2018-04-16T15:44:26.312Z,7.90
2018-04-16T15:46:53.699Z,8.73
2018-04-16T15:49:21.067Z,8.37
2018-04-16T15:51:48.423Z,9.00
2018-04-16T15:54:15.838Z,9.87
2018-04-16T15:56:43.262Z,9.37
2018-04-16T15:59:10.793Z,8.70
2018-04-16T16:01:38.380Z,8.80
2018-04-16T16:04:06.042Z,8.77
2018-04-16T16:06:33.418Z,8.80
2018-04-16T16:09:01.253Z,10.10
2018-04-16T16:11:28.802Z,8.00
2018-04-16T16:13:56.202Z,8.00
2018-04-16T16:16:23.557Z,8.77
2018-04-16T16:18:51.045Z,8.47
2018-04-16T16:21:18.597Z,8.07
2018-04-16T16:23:45.932Z,8.37
2018-04-16T16:26:13.547Z,8.63
2018-04-16T16:28:41.010Z,7.60
2018-04-16T16:31:08.446Z,9.73
2018-04-16T16:33:53.128Z,10.33
2018-04-16T16:36:24.867Z,10.90
2018-04-16T16:38:52.462Z,10.77
2018-04-16T16:46:32.748Z,14.17
2018-04-16T16:49:05.149Z,12.97
2018-04-16T16:51:32.529Z,10.90
2018-04-16T16:56:31.861Z,8.70
2018-04-16T16:58:59.526Z,10.73
2018-04-16T17:01:26.834Z,9.50
2018-04-16T17:03:54.491Z,8.97
2018-04-16T17:06:21.770Z,7.87
2018-04-16T17:08:49.103Z,6.50
2018-04-16T17:11:16.411Z,5.93
2018-04-16T17:13:43.788Z,5.80
2018-04-16T17:16:11.096Z,7.40
2018-04-16T17:18:38.640Z,6.83
2018-04-16T17:21:06.021Z,6.83
2018-04-16T17:23:33.598Z,6.80
2018-04-16T17:26:00.963Z,7.63
2018-04-16T17:28:28.340Z,7.57
2018-04-16T17:30:55.616Z,7.17
2018-04-16T17:33:22.914Z,7.10
2018-04-16T17:35:50.216Z,7.90
2018-04-16T17:38:17.623Z,7.93
2018-04-16T17:40:44.893Z,5.77
2018-04-16T17:43:12.193Z,5.03
2018-04-16T17:45:39.663Z,5.27
2018-04-16T17:48:07.508Z,5.30
2018-04-16T17:50:35.570Z,6.00
2018-04-16T17:53:03.204Z,6.10
2018-04-16T17:55:30.475Z,6.13
2018-04-16T17:57:57.737Z,6.17
2018-04-16T18:00:25.408Z,7.83
2018-04-16T18:02:53.584Z,8.30
2018-04-16T18:05:20.902Z,8.07
2018-04-16T18:07:48.251Z,7.40
2018-04-16T18:10:15.552Z,8.10
2018-04-16T18:12:42.871Z,9.47
2018-04-16T18:15:10.176Z,9.00
2018-04-16T18:17:37.511Z,9.10
2018-04-16T18:20:05.503Z,10.00
2018-04-16T18:22:32.810Z,8.40
2018-04-16T18:25:00.107Z,7.70
2018-04-16T18:27:27.532Z,9.70
2018-04-16T18:29:54.845Z,8.90
2018-04-16T18:32:22.163Z,8.03
2018-04-16T18:34:49.478Z,8.60
2018-04-16T18:37:17.144Z,7.17
2018-04-16T18:39:44.650Z,8.03
2018-04-16T18:42:12.075Z,7.80
2018-04-16T18:44:39.364Z,6.43
2018-04-16T18:47:07.005Z,7.30
2018-04-16T18:49:34.299Z,7.03
2018-04-16T18:52:01.713Z,6.43
2018-04-16T18:54:29.020Z,7.63
2018-04-16T18:56:56.302Z,7.10
2018-04-16T18:59:23.602Z,7.93
2018-04-16T19:01:50.892Z,6.00
2018-04-16T19:04:18.185Z,5.90
2018-04-16T19:06:45.469Z,5.17
2018-04-16T19:09:12.886Z,6.30
2018-04-16T19:11:40.234Z,6.47
2018-04-16T19:14:07.525Z,6.07
2018-04-16T19:16:34.851Z,7.00
2018-04-16T19:19:02.151Z,5.13
2018-04-16T19:21:34.962Z,5.20
2018-04-16T19:24:02.319Z,6.80
2018-04-16T19:26:29.649Z,6.63
2018-04-16T19:28:57.255Z,6.00
2018-04-16T19:31:24.542Z,5.50
2018-04-16T19:33:57.635Z,5.77
2018-04-16T19:36:24.969Z,6.27
2018-04-16T19:38:52.241Z,5.57
2018-04-16T19:41:19.531Z,5.80
2018-04-16T19:43:46.824Z,6.00
2018-04-16T19:46:14.102Z,4.60
2018-04-16T19:48:46.983Z,5.57
2018-04-16T19:51:14.549Z,4.20
2018-04-16T19:53:41.970Z,9.20
2018-04-16T19:56:14.876Z,5.87
2018-04-16T19:58:43.286Z,6.50
2018-04-16T20:01:10.685Z,5.23
2018-04-16T20:03:43.804Z,5.97
2018-04-16T20:06:11.176Z,6.00
2018-04-16T20:08:38.529Z,6.10
2018-04-16T20:11:05.872Z,6.50
2018-04-16T20:13:33.167Z,6.20
2018-04-16T20:16:00.565Z,6.70
2018-04-16T20:18:27.868Z,6.00
2018-04-16T20:20:55.160Z,5.90
2018-04-16T20:23:22.428Z,7.03
2018-04-16T20:25:49.713Z,9.10
2018-04-16T20:28:17.181Z,7.87
2018-04-16T20:30:44.534Z,7.10
2018-04-16T20:33:11.923Z,7.87
2018-04-16T20:35:39.221Z,7.70
2018-04-16T20:38:06.688Z,9.00
2018-04-16T20:40:34.024Z,7.30
2018-04-16T20:43:01.376Z,8.27
2018-04-16T20:45:28.704Z,7.33
2018-04-16T20:47:55.978Z,9.57
2018-04-16T20:50:23.290Z,9.73
2018-04-16T20:52:50.556Z,9.47
2018-04-16T20:55:17.867Z,10.70
2018-04-16T20:57:45.176Z,11.00
2018-04-16T21:00:12.449Z,10.07
2018-04-16T21:02:40.839Z,10.70
2018-04-16T21:05:09.642Z,10.30
2018-04-16T21:07:36.946Z,9.17
2018-04-16T21:10:04.225Z,9.03
2018-04-16T21:12:31.525Z,10.30
2018-04-16T21:14:58.855Z,10.10
2018-04-16T21:17:26.161Z,10.77
2018-04-16T21:19:53.451Z,9.77
2018-04-16T21:22:20.736Z,8.80
2018-04-16T21:24:48.013Z,9.80
2018-04-16T21:27:15.366Z,9.67
2018-04-16T21:29:42.691Z,10.63
2018-04-16T21:32:09.977Z,10.03
2018-04-16T21:34:37.279Z,10.60
2018-04-16T21:37:04.635Z,10.87
2018-04-16T21:39:31.959Z,10.40
2018-04-16T21:41:59.244Z,9.83
2018-04-16T21:44:26.537Z,10.30
2018-04-16T21:46:53.866Z,10.10
2018-04-16T21:49:21.143Z,8.90
2018-04-16T21:51:48.443Z,10.90
2018-04-16T21:54:15.707Z,10.10
2018-04-16T21:56:43.006Z,10.20
2018-04-16T21:59:10.339Z,11.10
2018-04-16T22:01:37.653Z,11.50
2018-04-16T22:04:04.949Z,11.30
2018-04-16T22:06:32.252Z,10.07
2018-04-16T22:08:59.551Z,10.27
2018-04-16T22:11:26.890Z,11.03
2018-04-16T22:13:54.181Z,9.60
2018-04-16T22:16:21.475Z,10.10
2018-04-16T22:18:48.766Z,10.33
2018-04-16T22:21:16.105Z,11.67
2018-04-16T22:23:43.389Z,10.07
2018-04-16T22:26:10.711Z,10.70
2018-04-16T22:28:38.023Z,10.80
2018-04-16T22:31:05.313Z,11.43
2018-04-16T22:33:32.643Z,9.83
2018-04-16T22:35:59.917Z,11.47
2018-04-16T22:38:27.218Z,10.60
2018-04-16T22:40:54.519Z,10.00
2018-04-16T22:43:21.814Z,10.53
2018-04-16T22:45:49.098Z,10.70
2018-04-16T22:48:16.409Z,11.13
2018-04-16T22:50:43.677Z,9.57
2018-04-16T22:53:10.985Z,11.70
2018-04-16T22:55:38.308Z,10.40
2018-04-16T22:58:05.707Z,9.77
2018-04-16T23:00:32.953Z,11.40
2018-04-16T23:03:00.245Z,11.60
2018-04-16T23:05:27.525Z,10.63
2018-04-16T23:07:54.828Z,10.33
2018-04-16T23:10:22.126Z,9.83
2018-04-16T23:12:49.416Z,11.13
2018-04-16T23:15:16.722Z,10.37
2018-04-16T23:17:44.286Z,10.53
2018-04-16T23:20:11.589Z,9.60
2018-04-16T23:22:38.908Z,12.50
2018-04-16T23:25:06.229Z,11.60
2018-04-16T23:27:33.513Z,10.90
2018-04-16T23:30:00.825Z,11.77
2018-04-16T23:32:28.127Z,12.20
2018-04-16T23:34:55.422Z,11.53
2018-04-16T23:37:22.698Z,13.00
2018-04-16T23:39:49.999Z,11.30
2018-04-16T23:42:17.277Z,12.23
2018-04-16T23:44:44.569Z,11.33
2018-04-16T23:47:11.928Z,11.37
2018-04-16T23:49:39.181Z,12.07
2018-04-16T23:52:06.476Z,11.73
2018-04-16T23:54:33.773Z,12.17
2018-04-16T23:57:01.052Z,12.80
2018-04-16T23:59:28.362Z,11.60
